sensor_id;sensor_type;location;lat;lon;timestamp;pressure;altitude;pressure_sealevel;temperature;humidity
75420;BME280;63998;52.488;13.428;2023-02-28T00:00:18;102637.59;;;5.06;61.36
75420;BME280;63998;52.488;13.428;2023-02-28T00:02:45;102633.81;;;5.16;64.08
75420;BME280;63998;52.488;13.428;2023-02-28T00:05:12;102633.13;;;5.18;62.03
75420;BME280;63998;52.488;13.428;2023-02-28T00:07:38;102627.97;;;5.18;62.44
75420;BME280;63998;52.488;13.428;2023-02-28T00:10:05;102632.00;;;5.29;64.92
75420;BME280;63998;52.488;13.428;2023-02-28T00:12:33;102632.31;;;5.35;63.99
75420;BME280;63998;52.488;13.428;2023-02-28T00:14:58;102633.59;;;5.27;60.41
75420;BME280;63998;52.488;13.428;2023-02-28T00:17:25;102640.19;;;5.22;59.61
75420;BME280;63998;52.488;13.428;2023-02-28T00:19:53;102636.00;;;5.24;61.56
75420;BME280;63998;52.488;13.428;2023-02-28T00:22:21;102637.75;;;5.09;60.71
75420;BME280;63998;52.488;13.428;2023-02-28T00:24:48;102631.25;;;4.85;59.48
75420;BME280;63998;52.488;13.428;2023-02-28T00:27:16;102636.97;;;4.79;59.69
75420;BME280;63998;52.488;13.428;2023-02-28T00:29:41;102631.53;;;4.75;60.45
75420;BME280;63998;52.488;13.428;2023-02-28T00:32:07;102640.84;;;4.73;61.16
75420;BME280;63998;52.488;13.428;2023-02-28T00:34:32;102645.50;;;4.63;61.56
75420;BME280;63998;52.488;13.428;2023-02-28T00:37:04;102643.44;;;4.73;62.01
75420;BME280;63998;52.488;13.428;2023-02-28T00:39:30;102638.06;;;4.53;59.01
75420;BME280;63998;52.488;13.428;2023-02-28T00:42:00;102638.75;;;4.65;62.78
75420;BME280;63998;52.488;13.428;2023-02-28T00:44:27;102642.94;;;4.63;62.72
75420;BME280;63998;52.488;13.428;2023-02-28T00:46:52;102635.91;;;4.61;61.63
75420;BME280;63998;52.488;13.428;2023-02-28T00:49:21;102643.72;;;4.62;62.49
75420;BME280;63998;52.488;13.428;2023-02-28T00:51:47;102644.22;;;4.72;63.54
75420;BME280;63998;52.488;13.428;2023-02-28T00:54:15;102644.22;;;4.72;61.29
75420;BME280;63998;52.488;13.428;2023-02-28T00:56:40;102637.66;;;4.77;61.04
75420;BME280;63998;52.488;13.428;2023-02-28T00:59:10;102638.34;;;4.89;64.82
75420;BME280;63998;52.488;13.428;2023-02-28T01:01:36;102645.81;;;4.84;62.90
75420;BME280;63998;52.488;13.428;2023-02-28T01:04:01;102645.66;;;4.81;62.16
75420;BME280;63998;52.488;13.428;2023-02-28T01:06:26;102640.84;;;4.87;63.43
75420;BME280;63998;52.488;13.428;2023-02-28T01:08:52;102641.41;;;4.98;64.11
75420;BME280;63998;52.488;13.428;2023-02-28T01:11:17;102639.19;;;5.04;65.07
75420;BME280;63998;52.488;13.428;2023-02-28T01:13:44;102635.66;;;5.02;63.57
75420;BME280;63998;52.488;13.428;2023-02-28T01:16:12;102632.09;;;5.00;63.48
75420;BME280;63998;52.488;13.428;2023-02-28T01:18:40;102629.66;;;4.87;60.75
75420;BME280;63998;52.488;13.428;2023-02-28T01:21:11;102631.91;;;4.97;65.82
75420;BME280;63998;52.488;13.428;2023-02-28T01:23:38;102628.72;;;5.01;65.08
75420;BME280;63998;52.488;13.428;2023-02-28T01:26:07;102631.59;;;4.91;62.67
75420;BME280;63998;52.488;13.428;2023-02-28T01:28:33;102623.63;;;4.72;60.67
75420;BME280;63998;52.488;13.428;2023-02-28T01:31:01;102626.81;;;4.82;63.10
75420;BME280;63998;52.488;13.428;2023-02-28T01:33:27;102624.69;;;4.90;64.74
75420;BME280;63998;52.488;13.428;2023-02-28T01:36:04;102619.03;;;4.81;62.75
75420;BME280;63998;52.488;13.428;2023-02-28T01:38:30;102625.59;;;4.76;61.68
75420;BME280;63998;52.488;13.428;2023-02-28T01:40:55;102628.97;;;4.75;62.00
75420;BME280;63998;52.488;13.428;2023-02-28T01:46:09;102625.25;;;4.69;63.66
75420;BME280;63998;52.488;13.428;2023-02-28T01:48:40;102625.19;;;4.53;62.44
75420;BME280;63998;52.488;13.428;2023-02-28T01:51:17;102626.88;;;4.38;61.05
75420;BME280;63998;52.488;13.428;2023-02-28T01:53:47;102629.56;;;4.25;63.01
75420;BME280;63998;52.488;13.428;2023-02-28T01:56:18;102632.59;;;4.18;62.01
75420;BME280;63998;52.488;13.428;2023-02-28T01:58:47;102630.44;;;4.11;62.51
75420;BME280;63998;52.488;13.428;2023-02-28T02:01:15;102632.75;;;4.06;62.55
75420;BME280;63998;52.488;13.428;2023-02-28T02:03:49;102621.94;;;4.12;63.84
75420;BME280;63998;52.488;13.428;2023-02-28T02:06:33;102621.50;;;4.19;64.84
75420;BME280;63998;52.488;13.428;2023-02-28T02:08:59;102627.59;;;4.21;65.21
75420;BME280;63998;52.488;13.428;2023-02-28T02:11:25;102615.72;;;4.23;65.35
75420;BME280;63998;52.488;13.428;2023-02-28T02:14:05;102621.41;;;4.03;63.67
75420;BME280;63998;52.488;13.428;2023-02-28T02:17:01;102615.47;;;4.04;63.51
75420;BME280;63998;52.488;13.428;2023-02-28T02:23:22;102624.41;;;3.95;66.14
75420;BME280;63998;52.488;13.428;2023-02-28T02:25:27;102617.13;;;3.88;65.09
75420;BME280;63998;52.488;13.428;2023-02-28T02:28:28;102621.91;;;3.82;64.69
75420;BME280;63998;52.488;13.428;2023-02-28T02:36:35;102615.16;;;3.84;65.71
75420;BME280;63998;52.488;13.428;2023-02-28T02:39:13;102618.53;;;3.83;66.03
75420;BME280;63998;52.488;13.428;2023-02-28T02:41:45;102620.66;;;3.76;65.63
75420;BME280;63998;52.488;13.428;2023-02-28T02:44:18;102626.34;;;3.70;65.58
75420;BME280;63998;52.488;13.428;2023-02-28T02:46:47;102624.72;;;3.72;66.44
75420;BME280;63998;52.488;13.428;2023-02-28T02:49:18;102613.03;;;3.77;67.10
75420;BME280;63998;52.488;13.428;2023-02-28T02:51:47;102620.22;;;3.68;66.89
75420;BME280;63998;52.488;13.428;2023-02-28T02:54:37;102616.28;;;3.60;66.33
75420;BME280;63998;52.488;13.428;2023-02-28T02:57:11;102622.94;;;3.71;68.44
75420;BME280;63998;52.488;13.428;2023-02-28T02:59:39;102620.91;;;3.66;67.42
75420;BME280;63998;52.488;13.428;2023-02-28T03:02:11;102624.16;;;3.63;66.84
75420;BME280;63998;52.488;13.428;2023-02-28T03:04:43;102618.28;;;3.51;65.94
75420;BME280;63998;52.488;13.428;2023-02-28T03:07:15;102634.03;;;3.42;65.83
75420;BME280;63998;52.488;13.428;2023-02-28T03:09:40;102622.59;;;3.37;66.32
75420;BME280;63998;52.488;13.428;2023-02-28T03:12:09;102627.31;;;3.44;68.02
75420;BME280;63998;52.488;13.428;2023-02-28T03:17:47;102629.78;;;3.43;67.71
75420;BME280;63998;52.488;13.428;2023-02-28T03:20:34;102631.56;;;3.44;66.91
75420;BME280;63998;52.488;13.428;2023-02-28T03:23:38;102626.03;;;3.38;66.70
75420;BME280;63998;52.488;13.428;2023-02-28T03:26:13;102638.09;;;3.39;67.34
75420;BME280;63998;52.488;13.428;2023-02-28T03:29:05;102640.16;;;3.44;68.19
75420;BME280;63998;52.488;13.428;2023-02-28T03:31:41;102637.59;;;3.44;67.75
75420;BME280;63998;52.488;13.428;2023-02-28T03:34:19;102633.84;;;3.39;68.51
75420;BME280;63998;52.488;13.428;2023-02-28T03:36:52;102629.03;;;3.31;66.26
75420;BME280;63998;52.488;13.428;2023-02-28T03:39:26;102630.44;;;3.25;66.18
75420;BME280;63998;52.488;13.428;2023-02-28T03:42:08;102638.91;;;3.24;67.80
75420;BME280;63998;52.488;13.428;2023-02-28T03:44:39;102643.03;;;3.36;68.33
75420;BME280;63998;52.488;13.428;2023-02-28T03:47:13;102642.34;;;3.38;68.19
75420;BME280;63998;52.488;13.428;2023-02-28T03:52:44;102640.91;;;3.29;66.82
75420;BME280;63998;52.488;13.428;2023-02-28T03:55:13;102636.25;;;3.23;67.79
75420;BME280;63998;52.488;13.428;2023-02-28T03:58:11;102642.28;;;3.23;67.64
75420;BME280;63998;52.488;13.428;2023-02-28T04:00:36;102638.56;;;3.18;67.51
75420;BME280;63998;52.488;13.428;2023-02-28T04:03:03;102643.50;;;3.15;67.37
75420;BME280;63998;52.488;13.428;2023-02-28T04:05:29;102640.13;;;3.16;67.98
75420;BME280;63998;52.488;13.428;2023-02-28T04:08:03;102647.84;;;3.16;68.23
75420;BME280;63998;52.488;13.428;2023-02-28T04:10:29;102651.78;;;3.11;67.66
75420;BME280;63998;52.488;13.428;2023-02-28T04:12:57;102647.16;;;3.06;67.66
75420;BME280;63998;52.488;13.428;2023-02-28T04:15:22;102648.22;;;3.09;69.03
75420;BME280;63998;52.488;13.428;2023-02-28T04:17:54;102647.44;;;3.10;67.97
75420;BME280;63998;52.488;13.428;2023-02-28T04:20:22;102641.34;;;3.08;68.95
75420;BME280;63998;52.488;13.428;2023-02-28T04:22:47;102650.41;;;3.16;68.30
75420;BME280;63998;52.488;13.428;2023-02-28T04:25:13;102651.22;;;3.02;68.13
75420;BME280;63998;52.488;13.428;2023-02-28T04:27:40;102655.75;;;3.06;68.01
75420;BME280;63998;52.488;13.428;2023-02-28T04:30:06;102654.38;;;2.98;67.12
75420;BME280;63998;52.488;13.428;2023-02-28T04:32:32;102648.66;;;2.89;67.15
75420;BME280;63998;52.488;13.428;2023-02-28T04:34:59;102652.41;;;2.94;68.21
75420;BME280;63998;52.488;13.428;2023-02-28T04:37:25;102653.59;;;2.86;67.96
75420;BME280;63998;52.488;13.428;2023-02-28T04:39:53;102655.00;;;2.81;66.76
75420;BME280;63998;52.488;13.428;2023-02-28T04:42:19;102655.28;;;2.72;67.07
75420;BME280;63998;52.488;13.428;2023-02-28T04:44:47;102651.81;;;2.85;69.07
75420;BME280;63998;52.488;13.428;2023-02-28T04:47:12;102658.94;;;2.89;69.75
75420;BME280;63998;52.488;13.428;2023-02-28T04:49:38;102659.13;;;2.92;70.53
75420;BME280;63998;52.488;13.428;2023-02-28T04:52:03;102656.34;;;3.02;70.50
75420;BME280;63998;52.488;13.428;2023-02-28T04:54:28;102662.69;;;2.94;69.45
75420;BME280;63998;52.488;13.428;2023-02-28T04:56:54;102657.34;;;2.91;69.34
75420;BME280;63998;52.488;13.428;2023-02-28T04:59:20;102656.16;;;2.86;69.73
75420;BME280;63998;52.488;13.428;2023-02-28T05:01:48;102671.38;;;2.83;69.00
75420;BME280;63998;52.488;13.428;2023-02-28T05:04:14;102669.41;;;2.79;68.24
75420;BME280;63998;52.488;13.428;2023-02-28T05:06:39;102662.69;;;2.68;67.29
75420;BME280;63998;52.488;13.428;2023-02-28T05:09:05;102672.06;;;2.67;67.92
75420;BME280;63998;52.488;13.428;2023-02-28T05:11:32;102675.31;;;2.78;70.15
75420;BME280;63998;52.488;13.428;2023-02-28T05:14:06;102674.31;;;2.76;69.55
75420;BME280;63998;52.488;13.428;2023-02-28T05:16:35;102670.19;;;2.78;69.34
75420;BME280;63998;52.488;13.428;2023-02-28T05:19:00;102673.34;;;2.74;69.40
75420;BME280;63998;52.488;13.428;2023-02-28T05:21:48;102674.94;;;2.72;68.45
75420;BME280;63998;52.488;13.428;2023-02-28T05:24:14;102681.66;;;2.70;68.69
75420;BME280;63998;52.488;13.428;2023-02-28T05:26:48;102681.66;;;2.70;68.68
75420;BME280;63998;52.488;13.428;2023-02-28T05:29:15;102684.78;;;2.66;68.91
75420;BME280;63998;52.488;13.428;2023-02-28T05:31:40;102680.75;;;2.69;70.15
75420;BME280;63998;52.488;13.428;2023-02-28T05:34:06;102673.16;;;2.71;69.52
75420;BME280;63998;52.488;13.428;2023-02-28T05:36:40;102676.31;;;2.67;69.22
75420;BME280;63998;52.488;13.428;2023-02-28T05:39:08;102678.28;;;2.58;68.71
75420;BME280;63998;52.488;13.428;2023-02-28T05:41:39;102682.41;;;2.56;68.45
75420;BME280;63998;52.488;13.428;2023-02-28T05:44:04;102686.97;;;2.60;68.48
75420;BME280;63998;52.488;13.428;2023-02-28T05:46:29;102691.47;;;2.50;68.45
75420;BME280;63998;52.488;13.428;2023-02-28T05:48:55;102694.25;;;2.53;68.56
75420;BME280;63998;52.488;13.428;2023-02-28T05:51:23;102699.38;;;2.53;68.99
75420;BME280;63998;52.488;13.428;2023-02-28T05:53:48;102695.03;;;2.52;68.79
75420;BME280;63998;52.488;13.428;2023-02-28T05:56:14;102695.81;;;2.51;69.38
75420;BME280;63998;52.488;13.428;2023-02-28T05:58:42;102694.47;;;2.57;69.74
75420;BME280;63998;52.488;13.428;2023-02-28T06:01:26;102700.94;;;2.51;69.63
75420;BME280;63998;52.488;13.428;2023-02-28T06:03:55;102697.38;;;2.49;69.73
75420;BME280;63998;52.488;13.428;2023-02-28T06:06:20;102697.59;;;2.52;70.18
75420;BME280;63998;52.488;13.428;2023-02-28T06:08:48;102702.34;;;2.46;69.64
75420;BME280;63998;52.488;13.428;2023-02-28T06:11:15;102701.16;;;2.55;70.79
75420;BME280;63998;52.488;13.428;2023-02-28T06:13:41;102701.16;;;2.55;70.98
75420;BME280;63998;52.488;13.428;2023-02-28T06:16:09;102704.59;;;2.55;69.31
75420;BME280;63998;52.488;13.428;2023-02-28T06:18:35;102709.44;;;2.64;71.51
75420;BME280;63998;52.488;13.428;2023-02-28T06:21:00;102708.09;;;2.69;70.85
75420;BME280;63998;52.488;13.428;2023-02-28T06:23:30;102709.25;;;2.74;71.22
75420;BME280;63998;52.488;13.428;2023-02-28T06:25:58;102708.25;;;2.85;71.09
75420;BME280;63998;52.488;13.428;2023-02-28T06:28:25;102708.25;;;2.85;70.78
75420;BME280;63998;52.488;13.428;2023-02-28T06:30:51;102706.53;;;2.84;71.34
75420;BME280;63998;52.488;13.428;2023-02-28T06:33:16;102713.22;;;2.82;70.42
75420;BME280;63998;52.488;13.428;2023-02-28T06:35:46;102718.94;;;2.91;70.29
75420;BME280;63998;52.488;13.428;2023-02-28T06:38:14;102720.31;;;2.86;69.69
75420;BME280;63998;52.488;13.428;2023-02-28T06:40:40;102728.22;;;2.89;69.99
75420;BME280;63998;52.488;13.428;2023-02-28T06:43:05;102729.78;;;3.00;70.50
75420;BME280;63998;52.488;13.428;2023-02-28T06:45:30;102725.75;;;3.04;70.40
75420;BME280;63998;52.488;13.428;2023-02-28T06:47:56;102729.91;;;3.02;68.86
75420;BME280;63998;52.488;13.428;2023-02-28T06:50:23;102724.66;;;3.00;67.72
75420;BME280;63998;52.488;13.428;2023-02-28T06:52:49;102734.81;;;3.12;70.66
75420;BME280;63998;52.488;13.428;2023-02-28T06:55:19;102738.00;;;3.08;68.94
75420;BME280;63998;52.488;13.428;2023-02-28T06:57:44;102737.13;;;3.07;67.47
75420;BME280;63998;52.488;13.428;2023-02-28T07:00:13;102741.84;;;3.01;66.21
75420;BME280;63998;52.488;13.428;2023-02-28T07:02:38;102736.28;;;3.21;70.32
75420;BME280;63998;52.488;13.428;2023-02-28T07:05:06;102738.69;;;3.32;70.16
75420;BME280;63998;52.488;13.428;2023-02-28T07:07:34;102738.69;;;3.32;66.94
75420;BME280;63998;52.488;13.428;2023-02-28T07:10:01;102736.13;;;3.32;65.25
75420;BME280;63998;52.488;13.428;2023-02-28T07:12:26;102739.56;;;3.45;67.18
75420;BME280;63998;52.488;13.428;2023-02-28T07:14:52;102743.94;;;3.61;67.62
75420;BME280;63998;52.488;13.428;2023-02-28T07:17:23;102737.41;;;3.66;68.35
75420;BME280;63998;52.488;13.428;2023-02-28T07:19:48;102738.16;;;3.78;68.84
75420;BME280;63998;52.488;13.428;2023-02-28T07:22:15;102741.91;;;3.83;68.32
75420;BME280;63998;52.488;13.428;2023-02-28T07:24:43;102740.69;;;3.91;68.18
75420;BME280;63998;52.488;13.428;2023-02-28T07:27:08;102737.34;;;3.92;67.47
75420;BME280;63998;52.488;13.428;2023-02-28T07:29:34;102737.59;;;3.97;66.64
75420;BME280;63998;52.488;13.428;2023-02-28T07:31:59;102744.91;;;4.04;66.23
75420;BME280;63998;52.488;13.428;2023-02-28T07:34:26;102740.50;;;4.16;65.67
75420;BME280;63998;52.488;13.428;2023-02-28T07:36:53;102748.22;;;4.16;63.38
75420;BME280;63998;52.488;13.428;2023-02-28T07:39:21;102743.09;;;4.31;63.99
75420;BME280;63998;52.488;13.428;2023-02-28T07:41:47;102738.47;;;4.25;62.34
75420;BME280;63998;52.488;13.428;2023-02-28T07:44:15;102747.75;;;4.81;66.32
75420;BME280;63998;52.488;13.428;2023-02-28T07:46:40;102747.47;;;5.22;66.03
75420;BME280;63998;52.488;13.428;2023-02-28T07:49:05;102739.53;;;5.02;59.71
75420;BME280;63998;52.488;13.428;2023-02-28T07:51:31;102734.91;;;4.97;59.31
75420;BME280;63998;52.488;13.428;2023-02-28T07:53:57;102739.22;;;4.82;57.06
75420;BME280;63998;52.488;13.428;2023-02-28T07:56:22;102745.59;;;4.74;56.41
75420;BME280;63998;52.488;13.428;2023-02-28T07:58:48;102741.53;;;4.77;56.92
75420;BME280;63998;52.488;13.428;2023-02-28T08:01:13;102741.94;;;4.85;57.19
75420;BME280;63998;52.488;13.428;2023-02-28T08:03:39;102742.22;;;4.89;56.90
75420;BME280;63998;52.488;13.428;2023-02-28T08:06:06;102745.59;;;4.88;55.21
75420;BME280;63998;52.488;13.428;2023-02-28T08:08:32;102741.66;;;4.95;55.60
75420;BME280;63998;52.488;13.428;2023-02-28T08:10:59;102739.56;;;4.88;52.32
75420;BME280;63998;52.488;13.428;2023-02-28T08:13:25;102738.66;;;4.87;54.05
75420;BME280;63998;52.488;13.428;2023-02-28T08:15:52;102747.56;;;4.78;52.15
75420;BME280;63998;52.488;13.428;2023-02-28T08:18:18;102740.53;;;4.90;51.73
75420;BME280;63998;52.488;13.428;2023-02-28T08:20:46;102739.63;;;5.04;53.06
75420;BME280;63998;52.488;13.428;2023-02-28T08:23:11;102742.09;;;5.17;53.63
75420;BME280;63998;52.488;13.428;2023-02-28T08:25:39;102747.34;;;5.19;53.76
75420;BME280;63998;52.488;13.428;2023-02-28T08:28:05;102746.78;;;5.24;54.35
75420;BME280;63998;52.488;13.428;2023-02-28T08:30:30;102747.13;;;5.30;54.83
75420;BME280;63998;52.488;13.428;2023-02-28T08:32:55;102746.78;;;5.24;50.66
75420;BME280;63998;52.488;13.428;2023-02-28T08:35:22;102744.69;;;5.02;47.72
75420;BME280;63998;52.488;13.428;2023-02-28T08:37:48;102743.06;;;5.19;52.05
75420;BME280;63998;52.488;13.428;2023-02-28T08:40:14;102750.34;;;5.26;51.47
75420;BME280;63998;52.488;13.428;2023-02-28T08:42:49;102751.00;;;5.38;53.47
75420;BME280;63998;52.488;13.428;2023-02-28T08:45:15;102750.25;;;5.56;53.34
75420;BME280;63998;52.488;13.428;2023-02-28T08:47:40;102739.72;;;5.67;54.59
75420;BME280;63998;52.488;13.428;2023-02-28T08:50:07;102750.56;;;5.62;50.40
75420;BME280;63998;52.488;13.428;2023-02-28T08:52:33;102748.47;;;5.55;48.63
75420;BME280;63998;52.488;13.428;2023-02-28T08:54:58;102741.69;;;5.57;48.61
75420;BME280;63998;52.488;13.428;2023-02-28T08:57:24;102735.81;;;5.59;51.80
75420;BME280;63998;52.488;13.428;2023-02-28T08:59:54;102744.56;;;5.47;46.31
75420;BME280;63998;52.488;13.428;2023-02-28T09:02:19;102746.28;;;5.15;44.14
75420;BME280;63998;52.488;13.428;2023-02-28T09:04:44;102748.41;;;5.07;43.96
75420;BME280;63998;52.488;13.428;2023-02-28T09:07:12;102741.16;;;4.86;44.29
75420;BME280;63998;52.488;13.428;2023-02-28T09:09:38;102747.88;;;4.84;43.40
75420;BME280;63998;52.488;13.428;2023-02-28T09:12:19;102748.59;;;4.96;45.40
75420;BME280;63998;52.488;13.428;2023-02-28T09:14:46;102750.16;;;5.23;49.64
75420;BME280;63998;52.488;13.428;2023-02-28T09:17:12;102745.34;;;5.29;45.54
75420;BME280;63998;52.488;13.428;2023-02-28T09:19:37;102752.09;;;5.27;47.20
75420;BME280;63998;52.488;13.428;2023-02-28T09:22:02;102738.25;;;5.25;43.32
75420;BME280;63998;52.488;13.428;2023-02-28T09:24:28;102744.69;;;5.17;44.36
75420;BME280;63998;52.488;13.428;2023-02-28T09:26:53;102741.09;;;5.30;45.96
75420;BME280;63998;52.488;13.428;2023-02-28T09:29:21;102743.75;;;5.31;45.04
75420;BME280;63998;52.488;13.428;2023-02-28T09:31:46;102739.81;;;5.38;46.20
75420;BME280;63998;52.488;13.428;2023-02-28T09:34:12;102748.47;;;5.55;47.49
75420;BME280;63998;52.488;13.428;2023-02-28T09:36:37;102746.84;;;5.57;44.85
75420;BME280;63998;52.488;13.428;2023-02-28T09:39:08;102741.31;;;5.34;41.85
75420;BME280;63998;52.488;13.428;2023-02-28T09:41:39;102749.97;;;5.20;42.16
75420;BME280;63998;52.488;13.428;2023-02-28T09:44:16;102746.75;;;4.79;41.98
75420;BME280;63998;52.488;13.428;2023-02-28T09:46:48;102747.75;;;4.81;43.12
75420;BME280;63998;52.488;13.428;2023-02-28T09:49:16;102748.44;;;4.93;43.57
75420;BME280;63998;52.488;13.428;2023-02-28T09:54:15;102750.72;;;5.49;46.77
75420;BME280;63998;52.488;13.428;2023-02-28T09:56:45;102748.63;;;5.58;45.07
75420;BME280;63998;52.488;13.428;2023-02-28T09:59:23;102748.03;;;5.78;46.14
75420;BME280;63998;52.488;13.428;2023-02-28T10:02:23;102749.91;;;5.97;45.96
75420;BME280;63998;52.488;13.428;2023-02-28T10:05:02;102745.34;;;5.76;42.29
75420;BME280;63998;52.488;13.428;2023-02-28T10:10:24;102759.59;;;6.17;47.69
75420;BME280;63998;52.488;13.428;2023-02-28T10:12:53;102751.91;;;6.35;44.56
75420;BME280;63998;52.488;13.428;2023-02-28T10:15:24;102749.66;;;6.08;41.90
75420;BME280;63998;52.488;13.428;2023-02-28T10:17:53;102748.00;;;5.93;40.50
75420;BME280;63998;52.488;13.428;2023-02-28T10:20:21;102738.97;;;5.70;40.04
75420;BME280;63998;52.488;13.428;2023-02-28T10:23:16;102750.47;;;6.07;47.90
75420;BME280;63998;52.488;13.428;2023-02-28T10:25:45;102747.53;;;6.34;46.95
75420;BME280;63998;52.488;13.428;2023-02-28T10:28:15;102747.81;;;6.56;46.40
75420;BME280;63998;52.488;13.428;2023-02-28T10:30:45;102747.94;;;6.75;43.53
75420;BME280;63998;52.488;13.428;2023-02-28T10:33:30;102743.22;;;6.84;42.88
75420;BME280;63998;52.488;13.428;2023-02-28T10:35:56;102741.75;;;7.07;45.19
75420;BME280;63998;52.488;13.428;2023-02-28T10:38:34;102749.44;;;7.06;42.98
75420;BME280;63998;52.488;13.428;2023-02-28T10:41:08;102750.78;;;6.98;42.00
75420;BME280;63998;52.488;13.428;2023-02-28T10:43:40;102746.34;;;7.13;43.99
75420;BME280;63998;52.488;13.428;2023-02-28T10:51:14;102743.22;;;7.20;42.96
75420;BME280;63998;52.488;13.428;2023-02-28T10:56:24;102727.00;;;6.87;39.84
75420;BME280;63998;52.488;13.428;2023-02-28T10:59:00;102728.06;;;6.91;42.04
75420;BME280;63998;52.488;13.428;2023-02-28T11:03:59;102727.59;;;7.17;44.86
75420;BME280;63998;52.488;13.428;2023-02-28T11:06:33;102719.44;;;7.45;43.51
75420;BME280;63998;52.488;13.428;2023-02-28T11:09:06;102714.88;;;7.39;38.87
75420;BME280;63998;52.488;13.428;2023-02-28T11:11:45;102713.41;;;7.27;37.24
75420;BME280;63998;52.488;13.428;2023-02-28T11:14:20;102708.66;;;7.36;40.63
75420;BME280;63998;52.488;13.428;2023-02-28T11:16:48;102696.53;;;7.52;38.37
75420;BME280;63998;52.488;13.428;2023-02-28T11:19:26;102703.63;;;7.76;39.38
75420;BME280;63998;52.488;13.428;2023-02-28T11:22:03;102702.50;;;8.09;39.12
75420;BME280;63998;52.488;13.428;2023-02-28T11:24:33;102693.50;;;8.20;37.67
75420;BME280;63998;52.488;13.428;2023-02-28T11:27:00;102695.69;;;8.11;35.58
75420;BME280;63998;52.488;13.428;2023-02-28T11:29:32;102689.47;;;7.87;35.38
75420;BME280;63998;52.488;13.428;2023-02-28T11:32:20;102684.53;;;7.93;35.84
75420;BME280;63998;52.488;13.428;2023-02-28T11:34:48;102686.44;;;7.97;35.57
75420;BME280;63998;52.488;13.428;2023-02-28T11:37:24;102683.19;;;8.01;35.46
75420;BME280;63998;52.488;13.428;2023-02-28T11:39:52;102683.09;;;8.19;36.27
75420;BME280;63998;52.488;13.428;2023-02-28T11:45:22;102693.94;;;8.71;39.85
75420;BME280;63998;52.488;13.428;2023-02-28T11:48:13;102686.19;;;9.14;38.42
75420;BME280;63998;52.488;13.428;2023-02-28T11:56:36;102693.44;;;9.23;34.16
75420;BME280;63998;52.488;13.428;2023-02-28T12:10:29;102679.06;;;10.01;34.17
75420;BME280;63998;52.488;13.428;2023-02-28T12:18:40;102678.16;;;10.75;33.20
75420;BME280;63998;52.488;13.428;2023-02-28T12:26:50;102668.81;;;11.08;33.30
75420;BME280;63998;52.488;13.428;2023-02-28T12:34:26;102652.72;;;11.51;31.26
75420;BME280;63998;52.488;13.428;2023-02-28T12:36:58;102650.84;;;11.76;30.05
75420;BME280;63998;52.488;13.428;2023-02-28T12:39:33;102645.09;;;11.87;29.34
75420;BME280;63998;52.488;13.428;2023-02-28T12:42:03;102633.50;;;12.08;29.08
75420;BME280;63998;52.488;13.428;2023-02-28T12:47:18;102623.13;;;12.44;28.42
75420;BME280;63998;52.488;13.428;2023-02-28T12:49:51;102615.13;;;12.72;28.07
75420;BME280;63998;52.488;13.428;2023-02-28T13:09:20;102585.47;;;14.43;25.44
75420;BME280;63998;52.488;13.428;2023-02-28T13:11:49;102585.84;;;13.66;25.46
75420;BME280;63998;52.488;13.428;2023-02-28T13:14:26;102582.28;;;14.11;25.67
75420;BME280;63998;52.488;13.428;2023-02-28T13:19:43;102576.94;;;12.38;26.75
75420;BME280;63998;52.488;13.428;2023-02-28T13:22:42;102583.72;;;13.07;26.45
75420;BME280;63998;52.488;13.428;2023-02-28T13:27:50;102585.78;;;14.64;24.15
75420;BME280;63998;52.488;13.428;2023-02-28T13:35:47;102584.78;;;15.95;22.92
75420;BME280;63998;52.488;13.428;2023-02-28T13:38:21;102579.97;;;16.48;21.99
75420;BME280;63998;52.488;13.428;2023-02-28T13:40:49;102574.66;;;16.38;21.46
75420;BME280;63998;52.488;13.428;2023-02-28T13:43:17;102583.34;;;15.43;22.33
75420;BME280;63998;52.488;13.428;2023-02-28T13:46:11;102575.47;;;16.28;23.31
75420;BME280;63998;52.488;13.428;2023-02-28T13:48:40;102565.19;;;16.61;22.09
75420;BME280;63998;52.488;13.428;2023-02-28T13:51:42;102569.91;;;17.20;21.82
75420;BME280;63998;52.488;13.428;2023-02-28T14:02:54;102546.47;;;18.28;20.54
75420;BME280;63998;52.488;13.428;2023-02-28T14:05:29;102550.75;;;17.53;20.42
75420;BME280;63998;52.488;13.428;2023-02-28T14:07:59;102550.84;;;17.88;21.22
75420;BME280;63998;52.488;13.428;2023-02-28T14:10:32;102551.69;;;18.31;20.88
75420;BME280;63998;52.488;13.428;2023-02-28T14:13:01;102549.06;;;18.42;20.24
75420;BME280;63998;52.488;13.428;2023-02-28T14:18:18;102550.81;;;17.64;20.56
75420;BME280;63998;52.488;13.428;2023-02-28T14:20:49;102549.09;;;18.11;20.14
75420;BME280;63998;52.488;13.428;2023-02-28T14:31:44;102548.94;;;18.96;19.07
75420;BME280;63998;52.488;13.428;2023-02-28T14:34:32;102546.44;;;18.66;20.07
75420;BME280;63998;52.488;13.428;2023-02-28T14:37:02;102541.94;;;18.92;19.58
75420;BME280;63998;52.488;13.428;2023-02-28T14:39:28;102545.25;;;19.34;19.17
75420;BME280;63998;52.488;13.428;2023-02-28T14:42:02;102543.44;;;19.42;19.40
75420;BME280;63998;52.488;13.428;2023-02-28T14:44:32;102546.00;;;19.62;19.26
75420;BME280;63998;52.488;13.428;2023-02-28T14:47:00;102544.97;;;19.80;18.96
75420;BME280;63998;52.488;13.428;2023-02-28T14:49:42;102539.84;;;19.61;18.52
75420;BME280;63998;52.488;13.428;2023-02-28T14:52:20;102531.09;;;19.56;18.67
75420;BME280;63998;52.488;13.428;2023-02-28T14:54:52;102534.53;;;19.67;18.38
75420;BME280;63998;52.488;13.428;2023-02-28T14:57:24;102536.25;;;19.75;17.93
75420;BME280;63998;52.488;13.428;2023-02-28T15:02:40;102539.69;;;19.86;17.93
75420;BME280;63998;52.488;13.428;2023-02-28T15:07:34;102532.63;;;19.88;17.85